Contact Us:
Email: info@sawbill.com
Phone: (218)663-7150
Fax: (218)663-7980
Mail: 4620 Sawbill Trail
Box 2129
Tofte, MN 55615


Powered by
Movable Type 3.15
 
Sawbill Weather History Archives: November 2010
Current Sawbill Weather History | « October 2010 | December 2010 »


Date

High
Temperature

Low
Temperature

Barometric
Pressure

Relative
Humidity 7AM

9 AM
Temperature

Moisture

Snow

11/30/10 33 17 29.59 83% 18 .12" 2"
11/29/10 35 33 29.23 98% 33 .47" 3.5"
11/28/10 35 25 29.68 98% 34 0
11/27/10 25 9 29.71 98% 25 0
11/26/10 20 14 29.77 88% 19 .01" .5"
11/25/10 20 2 29.29 85% 14 .09" 2.5"
11/24/10 30 20 29.41 80% 20 .35" 5"
11/23/10 22 4 29.94 95% 22 Trace Trace
11/22/10 24 9 29.74 74% 10 .24" 3"
11/21/10 31 21 29.65 81% 21 .1" 1"
11/20/10 25 10 29.83 85% 25 .09" 1"
11/19/10 33 10 30.09 67% 10 .04" .5"
11/18/10 29 17 29.53 98% 29 .06" .5"
11/17/10 31 19 30.06 66% 19 Trace
11/16/10 32 29 29.59 87% 29 0
11/15/10 30 27 29.53 88% 30 .1" 1"
11/14/10 29 26 29.72 98% 28 Trace Trace
11/13/10 34 27 29.47 91% 28 .37" 3.5"
11/12/10 43 28 30.06 73% 32 0
11/11/10 43 32 29.92 77% 32 0
11/10/10 56 41 29.88 70% 41 Trace
11/9/10 52 38 29.80 83% 43 0
11/8/10 53 36 29.74 86% 38 0
11/7/10 54 34 29.71 70% 39 0
11/6/10 46 29 29.85 79% 34 0
11/5/10 37 22 29.83 58% 29 0
11/4/10 46 21 29.91 71% 22 0
11/3/10 49 33 29.92 70% 33 0
11/2/10 52 31 29.68 87% 40 .17"
11/1/10 45 26 30.15 76% 31 0
 


Home I Trip Planning I Rentals and Outfitting I Reservations I Campgrounds I Sawbill Store I Sawbill News I Contact

© 1997 - 2017, Sawbill Canoe Outfitters, Inc. I Privacy Policy